Time;durP1;ratioP1;P1;durP2;ratioP2;P2;SDS_P1;SDS_P2;PMS_P1;PMS_P2;Temp;Humidity;BMP_temperature;BMP_pressure;BME280_temperature;BME280_humidity;BME280_pressure;Samples;Min_cycle;Max_cycle;Signal;HPM_P1;HPM_P2
2022/07/08 00:02:12;;;;;;;2.53;1.50;;;;;;;15.58;74.33;102021.41;4901417;29;20483;-73
2022/07/08 00:04:37;;;;;;;5.15;1.75;;;;;;;15.59;75.03;102023.91;4889696;29;20388;-71
2022/07/08 00:07:03;;;;;;;2.53;1.50;;;;;;;15.53;74.90;102009.22;4888329;29;20052;-71
2022/07/08 00:09:29;;;;;;;5.22;1.60;;;;;;;15.53;75.01;102020.25;4901439;29;20028;-73
2022/07/08 00:11:55;;;;;;;5.15;1.80;;;;;;;15.52;75.31;102024.13;4920577;29;20040;-74
2022/07/08 00:14:20;;;;;;;4.05;1.90;;;;;;;15.48;75.47;102028.50;4918188;29;20506;-72
2022/07/08 00:16:46;;;;;;;4.20;1.85;;;;;;;15.47;75.83;102028.75;4919644;29;20024;-74
2022/07/08 00:19:14;;;;;;;5.80;2.30;;;;;;;15.42;75.81;102017.66;4919035;29;20079;-74
2022/07/08 00:21:40;;;;;;;3.88;1.50;;;;;;;15.41;75.87;102022.34;4887006;29;20369;-74
2022/07/08 00:24:06;;;;;;;2.20;1.77;;;;;;;15.38;76.20;102022.88;4886942;29;20036;-74
2022/07/08 00:26:32;;;;;;;3.47;1.83;;;;;;;15.31;76.06;102011.22;4900857;29;20028;-74
2022/07/08 00:28:57;;;;;;;4.40;1.90;;;;;;;15.33;76.29;102025.56;4903099;29;20051;-73
2022/07/08 00:31:22;;;;;;;1.95;1.45;;;;;;;15.29;76.34;102016.19;4885321;29;20600;-74
2022/07/08 00:33:48;;;;;;;2.35;1.70;;;;;;;15.27;76.17;102027.44;4897468;29;20037;-74
2022/07/08 00:36:13;;;;;;;3.45;2.05;;;;;;;15.22;76.58;102012.78;4898734;29;20024;-74
2022/07/08 00:38:39;;;;;;;3.25;1.63;;;;;;;15.19;76.77;102020.47;4871648;29;20507;-73
2022/07/08 00:41:04;;;;;;;4.80;1.92;;;;;;;15.17;77.02;102017.16;4903818;29;20036;-74
2022/07/08 00:43:37;;;;;;;4.93;2.10;;;;;;;15.14;77.58;102017.66;4918064;29;20055;-74
2022/07/08 00:46:02;;;;;;;4.32;1.98;;;;;;;15.05;77.56;102013.69;4908082;29;20031;-73
2022/07/08 00:48:28;;;;;;;5.03;2.15;;;;;;;15.01;78.08;102007.03;4902170;29;20491;-74
2022/07/08 00:50:54;;;;;;;5.47;2.05;;;;;;;15.01;77.86;102018.06;4917507;29;20113;-73
2022/07/08 00:53:20;;;;;;;5.68;2.28;;;;;;;14.94;78.08;102009.16;4919632;29;20035;-73
2022/07/08 00:55:46;;;;;;;7.38;1.92;;;;;;;14.94;78.39;102018.25;4892475;29;20035;-73
2022/07/08 00:58:12;;;;;;;5.03;2.45;;;;;;;14.91;78.69;102020.66;4918849;29;20259;-74
2022/07/08 01:00:37;;;;;;;2.78;1.65;;;;;;;14.90;78.30;102021.78;4918244;29;20043;-72
2022/07/08 01:03:03;;;;;;;4.53;2.20;;;;;;;14.88;78.58;102029.44;4882944;29;20424;-72
2022/07/08 01:05:28;;;;;;;6.70;2.40;;;;;;;14.79;78.46;102018.88;4918079;29;20020;-74
2022/07/08 01:07:54;;;;;;;6.85;2.45;;;;;;;14.80;78.72;102028.78;4917133;29;20055;-73
2022/07/08 01:10:19;;;;;;;5.60;3.45;;;;;;;14.78;79.43;102025.47;4899709;29;20036;-74
2022/07/08 01:12:45;;;;;;;5.25;2.10;;;;;;;14.75;79.11;102020.50;4901448;29;20039;-74
2022/07/08 01:15:10;;;;;;;3.70;2.00;;;;;;;14.72;79.58;102028.41;4898949;29;20032;-74
2022/07/08 01:17:43;;;;;;;3.97;2.25;;;;;;;14.65;79.48;102018.41;4901877;29;20048;-72
2022/07/08 01:20:12;;;;;;;3.60;2.00;;;;;;;14.60;79.13;102011.97;4885740;29;20571;-74
2022/07/08 01:22:38;;;;;;;4.78;1.98;;;;;;;14.59;79.38;102015.84;4919643;29;20479;-73
2022/07/08 01:25:05;;;;;;;4.57;2.30;;;;;;;14.59;79.92;102015.84;4918312;29;20031;-74
2022/07/08 01:27:31;;;;;;;4.65;2.45;;;;;;;14.55;79.47;102017.44;4918578;29;20040;-74
2022/07/08 01:29:57;;;;;;;3.10;1.98;;;;;;;14.51;79.76;102013.50;4902176;29;20028;-72
2022/07/08 01:32:23;;;;;;;4.80;2.13;;;;;;;14.57;79.86;102018.00;4904284;29;20044;-73
2022/07/08 01:34:48;;;;;;;3.72;2.05;;;;;;;14.59;80.02;102024.09;4906477;29;20123;-73
2022/07/08 01:37:13;;;;;;;5.15;1.65;;;;;;;14.59;79.68;102015.84;4868618;29;20040;-73
2022/07/08 01:39:39;;;;;;;7.00;2.53;;;;;;;14.69;80.10;102021.50;4915400;29;20036;-73
2022/07/08 01:42:05;;;;;;;6.18;2.55;;;;;;;14.74;80.14;102020.75;4899700;29;20043;-74
2022/07/08 01:44:31;;;;;;;5.07;2.65;;;;;;;14.74;79.84;102013.31;4901166;29;20126;-73
2022/07/08 01:46:57;;;;;;;5.65;2.30;;;;;;;14.73;80.23;102022.66;4911245;29;20035;-73
2022/07/08 01:49:23;;;;;;;4.70;2.47;;;;;;;14.69;80.35;102010.50;4928252;29;20032;-73
2022/07/08 01:51:48;;;;;;;3.30;2.30;;;;;;;14.65;80.45;102017.59;4886597;29;20352;-72
2022/07/08 01:54:14;;;;;;;4.60;2.25;;;;;;;14.68;80.14;102019.84;4885486;29;20036;-72
2022/07/08 01:56:41;;;;;;;4.00;2.40;;;;;;;14.72;80.75;102021.00;4918267;29;20099;-72
2022/07/08 01:59:06;;;;;;;4.40;2.03;;;;;;;14.73;80.66;102019.06;4899528;29;20083;-72
2022/07/08 02:01:32;;;;;;;3.33;2.17;;;;;;;14.69;80.81;102007.75;4902205;29;20036;-73
2022/07/08 02:04:01;;;;;;;10.00;3.05;;;;;;;14.72;80.72;102010.00;4882206;29;20122;-72
2022/07/08 02:06:28;;;;;;;5.97;2.40;;;;;;;14.77;80.95;102015.53;4902532;29;20043;-72
2022/07/08 02:08:53;;;;;;;5.70;1.85;;;;;;;14.76;80.52;102013.91;4917329;29;20114;-73
2022/07/08 02:14:03;;;;;;;2.60;1.67;;;;;;;14.71;80.42;102008.31;4893422;29;20082;-72
2022/07/08 02:16:28;;;;;;;4.03;2.17;;;;;;;14.69;80.83;102010.50;4899166;29;20028;-74
2022/07/08 02:18:54;;;;;;;9.38;2.80;;;;;;;14.75;80.67;102014.97;4909806;29;20864;-73
2022/07/08 02:21:19;;;;;;;4.97;2.40;;;;;;;14.69;80.70;101999.50;4884816;29;20608;-74
2022/07/08 02:23:44;;;;;;;4.43;1.98;;;;;;;14.73;80.55;102014.38;4883549;29;20070;-72
2022/07/08 02:26:10;;;;;;;5.13;2.10;;;;;;;14.70;80.44;102012.16;4903065;29;20064;-73
2022/07/08 02:28:36;;;;;;;2.03;1.35;;;;;;;14.64;80.80;102008.50;4914330;29;20044;-73
2022/07/08 02:31:01;;;;;;;3.28;1.55;;;;;;;14.61;80.79;102002.63;4902912;29;20096;-72
2022/07/08 02:33:27;;;;;;;3.45;2.05;;;;;;;14.64;80.83;102002.16;4884607;29;20032;-72
2022/07/08 02:35:53;;;;;;;6.95;1.90;;;;;;;14.65;80.33;102004.66;4884489;29;20153;-72
2022/07/08 02:38:20;;;;;;;5.50;1.67;;;;;;;14.63;80.69;102000.47;4900670;29;20156;-75
2022/07/08 02:40:45;;;;;;;3.67;2.20;;;;;;;14.65;80.63;102009.34;4875611;29;20379;-73
2022/07/08 02:43:11;;;;;;;3.20;1.90;;;;;;;14.67;80.42;102007.16;4882764;29;20047;-74
2022/07/08 02:45:37;;;;;;;2.92;1.77;;;;;;;14.60;80.50;102000.97;4915623;29;20036;-73
2022/07/08 02:48:04;;;;;;;3.35;2.05;;;;;;;14.60;80.85;102011.97;4875611;29;20060;-73
2022/07/08 02:50:30;;;;;;;5.43;1.98;;;;;;;14.60;80.39;102000.97;4881861;29;20043;-73
2022/07/08 02:52:55;;;;;;;2.78;1.80;;;;;;;14.59;80.59;101999.31;4904939;29;20036;-72
2022/07/08 02:55:21;;;;;;;3.03;1.88;;;;;;;14.55;80.48;101992.66;4888193;29;20353;-71
2022/07/08 02:57:46;;;;;;;3.70;1.42;;;;;;;14.53;80.68;101997.56;4903725;29;20067;-72
2022/07/08 03:00:12;;;;;;;4.03;1.58;;;;;;;14.48;80.36;101999.19;4900713;29;20039;-73
2022/07/08 03:02:38;;;;;;;3.20;2.10;;;;;;;14.43;80.86;101993.59;4914320;29;20076;-73
2022/07/08 03:05:04;;;;;;;2.40;1.73;;;;;;;14.44;80.15;101998.03;4892425;29;20099;-75
2022/07/08 03:07:29;;;;;;;2.28;1.73;;;;;;;14.40;80.17;101999.59;4920678;29;20027;-74
2022/07/08 03:09:54;;;;;;;2.30;1.58;;;;;;;14.33;80.42;102004.47;4926574;29;20039;-75
2022/07/08 03:12:20;;;;;;;3.33;1.70;;;;;;;14.25;81.08;102002.13;4903270;29;20035;-74
2022/07/08 03:14:45;;;;;;;3.63;2.03;;;;;;;14.20;81.04;101996.56;4902600;29;20036;-74
2022/07/08 03:17:11;;;;;;;3.80;1.95;;;;;;;14.16;81.19;101989.88;4899337;29;20044;-73
2022/07/08 03:19:36;;;;;;;2.35;1.55;;;;;;;14.13;81.32;101997.56;4914001;29;20036;-74
2022/07/08 03:22:03;;;;;;;1.75;1.40;;;;;;;14.13;80.79;101997.56;4908280;29;20478;-74
2022/07/08 03:24:28;;;;;;;2.65;1.45;;;;;;;14.14;81.46;102003.91;4900155;29;20044;-72
2022/07/08 03:26:54;;;;;;;2.35;1.80;;;;;;;14.11;81.47;102005.22;4903283;29;20467;-74
2022/07/08 03:29:19;;;;;;;2.67;1.58;;;;;;;14.11;81.34;102005.22;4896131;29;20562;-74
2022/07/08 03:31:45;;;;;;;4.95;2.40;;;;;;;14.11;81.62;101999.72;4903596;29;20032;-73
2022/07/08 03:34:10;;;;;;;3.35;1.58;;;;;;;14.12;81.22;102006.91;4918885;29;20067;-74
2022/07/08 03:36:36;;;;;;;1.27;1.08;;;;;;;14.10;81.44;101998.06;4902918;29;20084;-74
2022/07/08 03:39:01;;;;;;;3.80;1.88;;;;;;;14.08;81.39;101994.72;4900524;29;20040;-74
2022/07/08 03:41:27;;;;;;;3.10;2.00;;;;;;;14.13;81.09;102008.56;4926718;29;20070;-73
2022/07/08 03:43:53;;;;;;;3.35;1.88;;;;;;;14.13;82.00;102003.06;4893603;29;20040;-72
2022/07/08 03:46:20;;;;;;;3.50;1.70;;;;;;;14.17;81.51;102006.16;4903986;29;20024;-73
2022/07/08 03:48:46;;;;;;;2.58;1.90;;;;;;;14.19;81.30;102011.41;4921926;29;20074;-73
2022/07/08 03:51:13;;;;;;;2.67;1.65;;;;;;;14.15;81.85;102005.56;4909133;29;20028;-73
2022/07/08 03:53:39;;;;;;;3.92;2.20;;;;;;;14.14;81.77;102012.16;4899400;29;20047;-73
2022/07/08 03:56:05;;;;;;;2.35;1.50;;;;;;;14.08;81.78;102011.25;4900301;29;20168;-74
2022/07/08 03:58:31;;;;;;;3.38;1.70;;;;;;;14.06;81.96;102016.16;4913006;29;20191;-74
2022/07/08 04:00:56;;;;;;;4.35;1.63;;;;;;;14.04;81.98;102015.56;4903705;29;20093;-74
2022/07/08 04:03:22;;;;;;;3.47;1.65;;;;;;;13.98;82.09;102015.75;4903472;29;20036;-74
2022/07/08 04:05:48;;;;;;;6.00;1.67;;;;;;;14.00;82.17;102027.31;4903317;29;20083;-73
2022/07/08 04:08:13;;;;;;;2.80;1.92;;;;;;;13.97;82.31;102025.91;4918345;29;20139;-74
2022/07/08 04:10:42;;;;;;;4.93;2.03;;;;;;;14.02;82.05;102019.63;4902916;29;20085;-74
2022/07/08 04:13:08;;;;;;;3.92;1.98;;;;;;;14.03;81.99;102027.66;4873386;29;20043;-74
2022/07/08 04:15:33;;;;;;;5.90;2.17;;;;;;;14.06;82.36;102029.91;4921049;29;20028;-74
2022/07/08 04:17:58;;;;;;;4.55;2.33;;;;;;;14.07;82.69;102034.31;4906299;29;20425;-74
2022/07/08 04:20:24;;;;;;;4.60;2.15;;;;;;;14.07;82.02;102047.25;4905993;29;20035;-74
2022/07/08 04:22:49;;;;;;;3.42;2.08;;;;;;;14.02;82.19;102042.50;4922109;29;20419;-74
2022/07/08 04:25:15;;;;;;;4.22;2.00;;;;;;;14.05;82.62;102042.00;4885679;29;20734;-74
2022/07/08 04:27:40;;;;;;;4.00;2.30;;;;;;;14.00;82.15;102041.91;4902986;29;20020;-73
2022/07/08 04:30:06;;;;;;;4.28;2.05;;;;;;;14.01;82.42;102046.31;4919872;29;20084;-71
2022/07/08 04:32:32;;;;;;;3.95;2.08;;;;;;;13.97;82.57;102047.91;4910006;29;20143;-72
2022/07/08 04:34:59;;;;;;;4.38;2.08;;;;;;;13.93;82.66;102046.72;4929197;29;20515;-73
2022/07/08 04:37:28;;;;;;;2.03;1.80;;;;;;;13.91;81.94;102044.22;4895012;29;20043;-72
2022/07/08 04:39:54;;;;;;;3.35;2.08;;;;;;;13.92;82.25;102051.41;4894089;29;20095;-72
2022/07/08 04:42:20;;;;;;;4.05;1.75;;;;;;;13.98;82.40;102055.06;4867264;29;20032;-73
2022/07/08 04:44:45;;;;;;;2.35;1.40;;;;;;;14.00;82.33;102052.91;4902366;29;20024;-74
2022/07/08 04:47:11;;;;;;;3.90;1.58;;;;;;;14.03;82.06;102057.94;4900174;29;20040;-72
2022/07/08 04:49:36;;;;;;;3.25;1.80;;;;;;;14.08;82.02;102055.25;4901418;29;20063;-74
2022/07/08 04:52:06;;;;;;;2.28;1.65;;;;;;;14.14;81.73;102058.91;4907080;29;20032;-73
2022/07/08 04:54:32;;;;;;;4.18;1.90;;;;;;;14.18;81.81;102064.75;4901127;29;20444;-72
2022/07/08 04:56:58;;;;;;;2.65;1.75;;;;;;;14.25;81.65;102065.41;4900825;29;20035;-71
2022/07/08 04:59:23;;;;;;;3.97;1.50;;;;;;;14.33;81.09;102062.25;4906132;29;20083;-72
2022/07/08 05:01:48;;;;;;;4.50;1.67;;;;;;;14.39;81.48;102061.22;4917515;29;20468;-72
2022/07/08 05:04:14;;;;;;;1.60;1.40;;;;;;;14.40;81.23;102056.56;4916627;29;20043;-72
2022/07/08 05:06:39;;;;;;;2.47;1.67;;;;;;;14.47;81.41;102060.81;4914701;29;20032;-73
2022/07/08 05:09:05;;;;;;;2.55;1.63;;;;;;;14.52;80.95;102064.72;4910859;29;20439;-72
2022/07/08 05:11:31;;;;;;;3.35;1.92;;;;;;;14.58;80.64;102058.22;4902435;29;20024;-72
2022/07/08 05:13:56;;;;;;;2.30;1.70;;;;;;;14.64;80.63;102068.22;4915459;29;20058;-71
2022/07/08 05:16:22;;;;;;;1.60;1.10;;;;;;;14.66;80.30;102061.41;4900860;29;20039;-73
2022/07/08 05:18:47;;;;;;;2.13;1.40;;;;;;;14.72;80.41;102067.81;4885065;29;20047;-72
2022/07/08 05:21:12;;;;;;;2.75;1.77;;;;;;;14.77;80.48;102072.56;4917020;29;20040;-71
2022/07/08 05:23:38;;;;;;;2.70;1.50;;;;;;;14.83;80.10;102077.88;4916842;29;20395;-73
2022/07/08 05:26:03;;;;;;;6.13;1.35;;;;;;;14.90;80.09;102076.84;4889131;29;20036;-73
2022/07/08 05:28:29;;;;;;;2.47;1.60;;;;;;;14.92;79.92;102070.00;4924544;29;20046;-73
2022/07/08 05:30:54;;;;;;;1.67;1.30;;;;;;;14.97;79.83;102083.00;4899495;29;20032;-73
2022/07/08 05:33:20;;;;;;;3.03;1.70;;;;;;;15.06;79.96;102081.47;4870365;29;20530;-74
2022/07/08 05:35:45;;;;;;;1.75;1.38;;;;;;;15.13;79.51;102082.13;4916282;29;20024;-74
2022/07/08 05:38:11;;;;;;;2.47;1.75;;;;;;;15.18;79.32;102079.41;4884800;29;20092;-74
2022/07/08 05:40:37;;;;;;;2.92;1.70;;;;;;;15.25;79.42;102073.72;4897896;29;20141;-75
2022/07/08 05:43:03;;;;;;;1.73;1.60;;;;;;;15.32;79.19;102087.31;4901499;29;20605;-74
2022/07/08 05:45:29;;;;;;;2.85;1.70;;;;;;;15.38;78.85;102078.00;4884018;29;20040;-75
2022/07/08 05:47:54;;;;;;;2.75;1.65;;;;;;;15.42;79.21;102079.16;4900669;29;20141;-75
2022/07/08 05:50:20;;;;;;;3.00;1.92;;;;;;;15.49;78.91;102089.97;4914993;29;20036;-74
2022/07/08 05:52:45;;;;;;;4.97;2.05;;;;;;;15.54;78.66;102088.09;4900058;29;20802;-74
2022/07/08 05:55:10;;;;;;;3.20;1.75;;;;;;;15.58;78.75;102088.44;4875024;29;20038;-73
2022/07/08 05:57:36;;;;;;;2.05;1.80;;;;;;;15.64;78.70;102095.66;4901334;29;20040;-73
2022/07/08 06:00:02;;;;;;;3.75;1.52;;;;;;;15.74;78.23;102083.91;4917030;29;20032;-74
2022/07/08 06:02:28;;;;;;;1.80;1.40;;;;;;;15.91;77.96;102091.25;4917105;29;20031;-74
2022/07/08 06:04:53;;;;;;;2.67;1.45;;;;;;;16.05;77.37;102086.97;4916516;29;20380;-74
2022/07/08 06:07:18;;;;;;;2.10;1.30;;;;;;;16.17;77.03;102093.16;4884841;29;20024;-76
2022/07/08 06:09:44;;;;;;;2.30;1.58;;;;;;;16.21;76.84;102091.53;4901066;29;20516;-73
2022/07/08 06:12:10;;;;;;;3.13;1.80;;;;;;;16.26;76.48;102092.66;4902073;29;20051;-73
2022/07/08 06:14:36;;;;;;;4.03;1.67;;;;;;;16.31;76.35;102101.81;4894360;29;20064;-72
2022/07/08 06:17:01;;;;;;;3.05;1.85;;;;;;;16.44;76.33;102100.56;4879224;29;20032;-72
2022/07/08 06:19:26;;;;;;;4.75;1.38;;;;;;;16.65;75.94;102092.41;4901950;29;20040;-72
2022/07/08 06:21:52;;;;;;;2.47;1.58;;;;;;;16.83;75.19;102097.47;4899595;29;20030;-72
2022/07/08 06:24:18;;;;;;;3.30;1.40;;;;;;;17.08;74.63;102098.72;4905674;29;20071;-74
2022/07/08 06:26:43;;;;;;;1.45;1.20;;;;;;;17.23;73.95;102104.34;4898580;29;20087;-72
2022/07/08 06:29:09;;;;;;;5.28;1.77;;;;;;;17.23;74.00;102097.97;4891762;29;20116;-74
2022/07/08 06:31:38;;;;;;;2.45;1.38;;;;;;;17.45;73.60;102106.06;4906068;29;20039;-73
2022/07/08 06:34:03;;;;;;;1.90;1.42;;;;;;;17.50;72.76;102106.06;4885976;29;20945;-72
2022/07/08 06:36:29;;;;;;;2.08;1.30;;;;;;;17.64;72.68;102106.41;4923787;29;20038;-73
2022/07/08 06:38:54;;;;;;;2.58;1.75;;;;;;;17.63;72.63;102105.56;4909290;29;20124;-74
2022/07/08 06:41:20;;;;;;;2.13;1.50;;;;;;;17.91;72.20;102111.72;4898921;29;20062;-73
2022/07/08 06:43:46;;;;;;;2.90;1.10;;;;;;;17.96;72.00;102114.50;4899495;29;20051;-72
2022/07/08 06:46:12;;;;;;;2.90;1.38;;;;;;;18.07;71.46;102118.09;4906053;29;20047;-72
2022/07/08 06:48:38;;;;;;;2.15;1.30;;;;;;;18.15;71.24;102116.75;4912533;29;20040;-73
2022/07/08 06:51:07;;;;;;;2.60;1.35;;;;;;;18.24;70.29;102115.09;4912715;29;20032;-74
2022/07/08 06:54:34;;;;;;;1.80;1.40;;;;;;;18.25;70.03;102105.69;4914438;29;20131;-73
2022/07/08 06:56:18;;;;;;;1.27;1.15;;;;;;;18.50;70.17;102112.31;4914759;29;20071;-73
2022/07/08 06:58:44;;;;;;;2.47;1.25;;;;;;;18.68;69.43;102119.19;4901521;29;20515;-74
2022/07/08 07:01:10;;;;;;;2.55;1.30;;;;;;;18.81;68.99;102121.38;4917741;29;20036;-75
2022/07/08 07:03:37;;;;;;;3.72;1.23;;;;;;;18.88;68.60;102123.91;4901377;29;20032;-73
2022/07/08 07:06:05;;;;;;;2.45;1.60;;;;;;;19.00;67.71;102099.47;4889242;29;20127;-73
2022/07/08 07:08:31;;;;;;;5.00;1.00;;;;;;;19.17;68.14;102109.38;4902676;29;20499;-73
2022/07/08 07:10:56;;;;;;;1.52;0.98;;;;;;;19.29;67.26;102111.81;4917441;29;20058;-72
2022/07/08 07:13:22;;;;;;;3.35;1.40;;;;;;;19.44;66.96;102116.47;4900350;29;20043;-74
2022/07/08 07:15:47;;;;;;;2.72;1.35;;;;;;;19.43;66.76;102118.41;4907297;29;20047;-74
2022/07/08 07:18:12;;;;;;;1.73;1.05;;;;;;;19.49;66.43;102122.00;4886803;29;20048;-73
2022/07/08 07:20:38;;;;;;;1.83;1.15;;;;;;;19.58;66.27;102116.66;4908951;29;20028;-71
2022/07/08 07:23:03;;;;;;;1.20;1.10;;;;;;;19.54;66.19;102121.97;4885436;29;20173;-73
2022/07/08 07:25:29;;;;;;;2.00;1.38;;;;;;;19.45;65.48;102126.44;4897563;29;20035;-72
2022/07/08 07:27:54;;;;;;;1.65;1.10;;;;;;;19.39;65.74;102119.28;4918877;29;20047;-73
2022/07/08 07:30:22;;;;;;;1.75;1.05;;;;;;;19.41;66.30;102109.56;4887917;29;20066;-74
2022/07/08 07:32:47;;;;;;;1.15;0.82;;;;;;;19.58;66.21;102120.28;4885065;29;20028;-74
2022/07/08 07:35:12;;;;;;;2.60;1.30;;;;;;;19.64;65.46;102118.28;4901715;29;20035;-74
2022/07/08 07:37:38;;;;;;;3.25;1.10;;;;;;;19.78;64.87;102118.50;4918612;29;20058;-73
2022/07/08 07:40:05;;;;;;;2.45;1.17;;;;;;;19.93;64.49;102115.66;4902579;29;20030;-73
2022/07/08 07:42:31;;;;;;;2.50;1.35;;;;;;;20.03;64.20;102118.38;4897922;29;20040;-73
2022/07/08 07:44:56;;;;;;;3.38;1.50;;;;;;;20.18;64.08;102116.56;4905733;29;20463;-72
2022/07/08 07:47:21;;;;;;;5.10;1.13;;;;;;;20.34;63.58;102120.88;4897500;29;20544;-74
2022/07/08 07:49:47;;;;;;;1.92;1.20;;;;;;;20.42;63.39;102121.38;4896581;29;20037;-72
2022/07/08 07:52:12;;;;;;;1.10;1.00;;;;;;;20.59;62.78;102113.44;4882159;29;20040;-77
2022/07/08 07:54:38;;;;;;;1.90;1.00;;;;;;;20.62;62.73;102115.63;4896197;29;20033;-73
2022/07/08 07:57:04;;;;;;;2.95;1.17;;;;;;;20.73;62.24;102120.00;4889029;29;20468;-74
2022/07/08 07:59:29;;;;;;;1.70;1.13;;;;;;;20.67;61.87;102121.16;4886876;29;20032;-73
2022/07/08 08:01:55;;;;;;;2.50;1.10;;;;;;;20.77;61.91;102122.19;4893396;29;20383;-75
2022/07/08 08:04:20;;;;;;;1.27;1.15;;;;;;;20.91;61.41;102123.97;4904677;29;20480;-74
2022/07/08 08:06:45;;;;;;;1.45;0.70;;;;;;;21.02;61.58;102121.88;4916416;29;20446;-72
2022/07/08 08:09:11;;;;;;;1.27;0.98;;;;;;;21.12;61.24;102123.72;4896826;29;20159;-72
2022/07/08 08:11:36;;;;;;;1.30;1.20;;;;;;;21.18;60.97;102124.50;4922052;29;20032;-74
2022/07/08 08:14:02;;;;;;;1.85;1.27;;;;;;;21.03;60.64;102115.22;4924927;29;20055;-73
2022/07/08 08:16:27;;;;;;;2.33;1.23;;;;;;;20.92;61.10;102117.28;4920609;29;20024;-73
2022/07/08 08:18:53;;;;;;;2.40;0.90;;;;;;;20.99;61.53;102125.25;4919485;29;20052;-73
2022/07/08 08:21:18;;;;;;;1.25;0.90;;;;;;;21.16;61.00;102121.16;4907326;29;20035;-72
2022/07/08 08:23:44;;;;;;;3.00;1.30;;;;;;;21.23;60.76;102122.47;4906633;29;20032;-73
2022/07/08 08:26:09;;;;;;;3.00;1.30;;;;;;;21.32;60.52;102121.81;4921429;29;20091;-72
2022/07/08 08:28:35;;;;;;;1.48;1.05;;;;;;;21.40;60.32;102123.94;4918594;29;20118;-73
2022/07/08 08:31:00;;;;;;;4.15;1.00;;;;;;;21.44;60.00;102120.25;4903075;29;20040;-75
2022/07/08 08:33:26;;;;;;;4.00;1.30;;;;;;;21.45;59.79;102126.66;4901211;29;20037;-74
2022/07/08 08:35:51;;;;;;;3.13;1.55;;;;;;;21.40;60.27;102119.19;4919211;29;20117;-74
2022/07/08 08:38:16;;;;;;;1.65;0.85;;;;;;;21.42;60.00;102128.06;4906109;29;20047;-74
2022/07/08 08:40:42;;;;;;;2.13;0.90;;;;;;;21.52;59.91;102120.75;4899030;29;20139;-74
2022/07/08 08:43:08;;;;;;;3.08;1.77;;;;;;;21.65;59.88;102120.00;4900928;29;20038;-74
2022/07/08 08:45:34;;;;;;;1.42;0.70;;;;;;;21.84;59.16;102117.19;4889554;29;20036;-73
2022/07/08 08:48:05;;;;;;;3.78;1.48;;;;;;;21.89;58.94;102130.22;4901772;29;20044;-74
2022/07/08 08:50:55;;;;;;;0.90;0.80;;;;;;;22.06;58.63;102126.91;4901117;29;20031;-74
2022/07/08 08:53:30;;;;;;;4.00;1.30;;;;;;;22.24;58.37;102133.56;4921487;29;20111;-74
2022/07/08 08:55:56;;;;;;;1.08;0.77;;;;;;;22.21;57.91;102109.09;4886049;29;20433;-74
2022/07/08 08:58:23;;;;;;;1.70;0.77;;;;;;;22.46;57.49;102131.00;4919645;29;20047;-73
2022/07/08 09:00:48;;;;;;;1.25;1.00;;;;;;;22.54;57.36;102129.47;4906001;29;20368;-73
2022/07/08 09:03:14;;;;;;;2.35;1.10;;;;;;;22.45;56.67;102126.53;4919184;29;20031;-75
2022/07/08 09:05:39;;;;;;;1.10;0.75;;;;;;;22.41;57.41;102122.72;4887718;29;20051;-72
2022/07/08 09:08:05;;;;;;;2.60;1.25;;;;;;;22.52;56.57;102125.34;4890299;29;20443;-74
2022/07/08 09:10:38;;;;;;;1.25;0.80;;;;;;;22.58;56.12;102113.78;4918630;29;20024;-74
2022/07/08 09:13:11;;;;;;;1.35;0.80;;;;;;;22.55;56.53;102102.44;4916089;29;20047;-74
2022/07/08 09:15:39;;;;;;;3.53;0.88;;;;;;;22.73;56.12;102112.66;4920334;29;20075;-74
2022/07/08 09:18:21;;;;;;;3.53;0.77;;;;;;;22.97;55.92;102111.66;4899257;29;20076;-74
2022/07/08 09:20:53;;;;;;;2.38;1.10;;;;;;;23.10;55.54;102108.06;4897376;29;20035;-75
2022/07/08 09:23:21;;;;;;;1.67;0.80;;;;;;;23.27;55.19;102117.75;4901106;29;20077;-73
2022/07/08 09:25:52;;;;;;;3.17;0.95;;;;;;;23.36;54.80;102104.72;4901091;29;20119;-76
2022/07/08 09:28:31;;;;;;;1.67;0.90;;;;;;;23.53;53.88;102102.09;4916786;29;20031;-74
2022/07/08 09:30:58;;;;;;;1.20;0.68;;;;;;;23.73;53.74;102097.19;4913919;29;20028;-73
2022/07/08 09:33:27;;;;;;;2.83;1.00;;;;;;;23.85;53.34;102096.63;4915740;29;20040;-74
2022/07/08 09:35:55;;;;;;;1.38;0.80;;;;;;;24.03;51.93;102106.00;4914955;29;20512;-75
2022/07/08 09:38:22;;;;;;;1.67;0.75;;;;;;;23.90;51.32;102095.72;4903083;29;20044;-74
2022/07/08 09:40:57;;;;;;;0.50;0.40;;;;;;;24.07;51.66;102106.19;4916168;29;20059;-75
2022/07/08 09:43:24;;;;;;;4.22;0.93;;;;;;;24.21;51.41;102099.41;4910061;29;20047;-74
2022/07/08 09:45:49;;;;;;;5.07;0.57;;;;;;;24.44;50.53;102098.53;4919366;29;20387;-75
2022/07/08 09:48:15;;;;;;;1.20;0.73;;;;;;;24.67;49.64;102102.97;4918233;29;20060;-75
2022/07/08 09:50:51;;;;;;;1.40;0.52;;;;;;;24.67;50.32;102102.16;4916202;29;20171;-73
2022/07/08 09:53:25;;;;;;;1.60;0.90;;;;;;;24.73;49.35;102106.44;4898853;29;20055;-73
2022/07/08 09:55:52;;;;;;;1.05;0.55;;;;;;;24.85;49.25;102109.47;4897203;29;20490;-74
2022/07/08 09:58:23;;;;;;;1.25;0.40;;;;;;;25.21;48.65;102116.81;4899344;29;20047;-74
2022/07/08 10:00:50;;;;;;;0.85;0.40;;;;;;;25.46;47.12;102117.22;4898349;29;20151;-75
2022/07/08 10:03:17;;;;;;;0.63;0.40;;;;;;;25.74;47.00;102111.31;4901941;29;20047;-73
2022/07/08 10:05:43;;;;;;;0.50;0.47;;;;;;;25.98;45.24;102104.38;4903830;29;20666;-74
2022/07/08 10:08:10;;;;;;;0.40;0.30;;;;;;;26.40;43.59;102115.88;4893301;29;20492;-75
2022/07/08 10:10:38;;;;;;;0.55;0.43;;;;;;;27.55;42.33;102106.63;4890669;29;20028;-75
2022/07/08 10:13:05;;;;;;;0.90;0.57;;;;;;;28.86;39.99;102121.41;4900867;29;20024;-74
2022/07/08 10:15:36;;;;;;;0.57;0.32;;;;;;;30.24;37.92;102110.31;4916693;29;20107;-75
2022/07/08 10:18:38;;;;;;;0.85;0.40;;;;;;;31.40;34.78;102126.19;4905096;29;20095;-74
2022/07/08 10:21:07;;;;;;;0.30;0.30;;;;;;;32.62;32.96;102115.72;4904681;29;20122;-75
2022/07/08 10:23:38;;;;;;;0.90;0.50;;;;;;;33.59;31.38;102117.25;4918873;29;20127;-74
2022/07/08 10:26:06;;;;;;;1.75;0.47;;;;;;;34.20;30.07;102120.84;4917664;29;20028;-76
2022/07/08 10:28:39;;;;;;;1.45;1.00;;;;;;;34.34;29.25;102117.34;4903740;29;20507;-74
2022/07/08 10:31:24;;;;;;;0.40;0.30;;;;;;;34.88;29.15;102120.69;4904241;29;20131;-75
2022/07/08 10:33:50;;;;;;;0.20;0.20;;;;;;;35.43;27.73;102121.91;4920303;29;20024;-74
2022/07/08 10:36:20;;;;;;;0.20;0.20;;;;;;;35.80;26.84;102126.56;4919059;29;20510;-75
2022/07/08 10:38:47;;;;;;;0.30;0.30;;;;;;;36.15;27.00;102119.34;4905162;29;20036;-76
2022/07/08 10:41:18;;;;;;;5.47;0.32;;;;;;;36.09;25.64;102118.13;4903807;29;20042;-74
2022/07/08 10:43:52;;;;;;;0.35;0.20;;;;;;;36.16;25.25;102121.78;4899597;29;20047;-77
2022/07/08 10:46:20;;;;;;;0.17;0.17;;;;;;;36.20;25.32;102110.41;4897474;29;20031;-76
2022/07/08 10:48:50;;;;;;;3.03;0.40;;;;;;;36.27;25.05;102110.41;4903165;29;20099;-74
2022/07/08 10:51:25;;;;;;;1.70;0.30;;;;;;;35.85;24.60;102106.25;4903474;29;20041;-75
2022/07/08 10:54:01;;;;;;;2.40;0.45;;;;;;;34.59;25.71;102099.72;4903344;29;20036;-76
2022/07/08 10:56:48;;;;;;;1.13;0.50;;;;;;;33.53;26.71;102096.13;4880947;29;20029;-74
2022/07/08 10:59:25;;;;;;;0.90;0.52;;;;;;;32.97;28.33;102092.03;4916464;29;21455;-74
2022/07/08 11:02:07;;;;;;;0.57;0.20;;;;;;;32.61;28.97;102091.41;4917997;29;20110;-74
2022/07/08 11:04:45;;;;;;;1.85;0.25;;;;;;;31.97;29.52;102092.66;4918110;29;20028;-73
2022/07/08 11:07:37;;;;;;;3.20;0.40;;;;;;;31.58;29.60;102092.69;4903315;29;20719;-74
2022/07/08 11:10:13;;;;;;;3.30;0.60;;;;;;;31.12;30.61;102086.81;4916646;29;20035;-75
2022/07/08 11:12:45;;;;;;;1.42;0.40;;;;;;;30.79;30.88;102083.16;4918084;29;20083;-76
2022/07/08 11:15:13;;;;;;;0.63;0.40;;;;;;;30.45;32.51;102088.34;4917871;29;20032;-75
2022/07/08 11:17:40;;;;;;;0.80;0.43;;;;;;;30.35;32.21;102077.56;4902400;29;20023;-75
2022/07/08 11:20:18;;;;;;;1.00;0.40;;;;;;;30.30;33.65;102069.41;4906431;29;20070;-74
2022/07/08 11:22:45;;;;;;;0.80;0.30;;;;;;;30.48;31.73;102072.72;4906323;29;20040;-75
2022/07/08 11:25:16;;;;;;;1.73;0.30;;;;;;;30.47;32.34;102076.69;4924446;29;20173;-75
2022/07/08 11:27:42;;;;;;;0.50;0.35;;;;;;;30.61;33.22;102081.91;4911537;29;20028;-77